sensor_id;sensor_type;location;lat;lon;timestamp;temperature;humidity
18807;DHT22;9531;52.030;4.380;2022-09-03T00:02:14;19.20;99.90
18807;DHT22;9531;52.030;4.380;2022-09-03T00:04:50;19.20;99.90
18807;DHT22;9531;52.030;4.380;2022-09-03T00:07:25;19.20;99.90
18807;DHT22;9531;52.030;4.380;2022-09-03T00:09:56;19.20;99.90
18807;DHT22;9531;52.030;4.380;2022-09-03T00:12:31;19.20;99.90
18807;DHT22;9531;52.030;4.380;2022-09-03T00:15:02;19.10;99.90
18807;DHT22;9531;52.030;4.380;2022-09-03T00:17:35;19.10;99.90
18807;DHT22;9531;52.030;4.380;2022-09-03T00:20:07;19.10;99.90
18807;DHT22;9531;52.030;4.380;2022-09-03T00:22:38;19.00;99.90
18807;DHT22;9531;52.030;4.380;2022-09-03T00:25:15;19.10;99.90
18807;DHT22;9531;52.030;4.380;2022-09-03T00:27:49;19.00;99.90
18807;DHT22;9531;52.030;4.380;2022-09-03T00:30:18;19.00;99.90
18807;DHT22;9531;52.030;4.380;2022-09-03T00:32:53;19.10;99.90
18807;DHT22;9531;52.030;4.380;2022-09-03T00:35:24;19.00;99.90
18807;DHT22;9531;52.030;4.380;2022-09-03T00:37:53;19.00;99.90
18807;DHT22;9531;52.030;4.380;2022-09-03T00:40:48;19.00;99.90
18807;DHT22;9531;52.030;4.380;2022-09-03T00:43:45;19.00;99.90
18807;DHT22;9531;52.030;4.380;2022-09-03T00:46:18;19.00;99.90
18807;DHT22;9531;52.030;4.380;2022-09-03T00:51:40;19.00;99.90
18807;DHT22;9531;52.030;4.380;2022-09-03T00:54:15;19.00;99.90
18807;DHT22;9531;52.030;4.380;2022-09-03T00:57:06;19.00;99.90
18807;DHT22;9531;52.030;4.380;2022-09-03T00:59:40;19.00;99.90
18807;DHT22;9531;52.030;4.380;2022-09-03T01:02:16;19.00;99.90
18807;DHT22;9531;52.030;4.380;2022-09-03T01:04:56;19.00;99.90
18807;DHT22;9531;52.030;4.380;2022-09-03T01:07:34;19.00;99.90
18807;DHT22;9531;52.030;4.380;2022-09-03T01:10:14;19.00;99.90
18807;DHT22;9531;52.030;4.380;2022-09-03T01:12:53;19.00;99.90
18807;DHT22;9531;52.030;4.380;2022-09-03T01:15:29;19.00;99.90
18807;DHT22;9531;52.030;4.380;2022-09-03T01:18:10;19.00;99.90
18807;DHT22;9531;52.030;4.380;2022-09-03T01:20:57;18.90;99.90
18807;DHT22;9531;52.030;4.380;2022-09-03T01:26:51;19.00;99.90
18807;DHT22;9531;52.030;4.380;2022-09-03T01:29:28;19.00;99.90
18807;DHT22;9531;52.030;4.380;2022-09-03T01:32:06;19.00;99.90
18807;DHT22;9531;52.030;4.380;2022-09-03T01:34:45;18.90;99.90
18807;DHT22;9531;52.030;4.380;2022-09-03T01:37:31;18.90;99.90
18807;DHT22;9531;52.030;4.380;2022-09-03T01:40:10;18.90;99.90
18807;DHT22;9531;52.030;4.380;2022-09-03T01:42:52;18.90;99.90
18807;DHT22;9531;52.030;4.380;2022-09-03T01:45:41;18.90;99.90
18807;DHT22;9531;52.030;4.380;2022-09-03T01:48:31;18.90;99.90
18807;DHT22;9531;52.030;4.380;2022-09-03T01:51:09;18.90;99.90
18807;DHT22;9531;52.030;4.380;2022-09-03T01:53:55;18.80;99.90
18807;DHT22;9531;52.030;4.380;2022-09-03T01:56:36;18.80;99.90
18807;DHT22;9531;52.030;4.380;2022-09-03T01:59:14;18.80;99.90
18807;DHT22;9531;52.030;4.380;2022-09-03T02:01:52;18.80;99.90
18807;DHT22;9531;52.030;4.380;2022-09-03T02:04:23;18.80;99.90
18807;DHT22;9531;52.030;4.380;2022-09-03T02:06:51;18.70;99.90
18807;DHT22;9531;52.030;4.380;2022-09-03T02:09:20;18.70;99.90
18807;DHT22;9531;52.030;4.380;2022-09-03T02:11:52;18.70;99.90
18807;DHT22;9531;52.030;4.380;2022-09-03T02:14:24;18.70;99.90
18807;DHT22;9531;52.030;4.380;2022-09-03T02:17:01;18.60;99.90
18807;DHT22;9531;52.030;4.380;2022-09-03T02:19:29;18.60;99.90
18807;DHT22;9531;52.030;4.380;2022-09-03T02:21:57;18.60;99.90
18807;DHT22;9531;52.030;4.380;2022-09-03T02:24:28;18.50;99.90
18807;DHT22;9531;52.030;4.380;2022-09-03T02:26:55;18.40;99.90
18807;DHT22;9531;52.030;4.380;2022-09-03T02:29:41;18.50;99.90
18807;DHT22;9531;52.030;4.380;2022-09-03T02:36:10;18.40;99.90
18807;DHT22;9531;52.030;4.380;2022-09-03T02:45:41;18.20;99.90
18807;DHT22;9531;52.030;4.380;2022-09-03T02:48:09;18.10;99.90
18807;DHT22;9531;52.030;4.380;2022-09-03T02:50:52;18.10;99.90
18807;DHT22;9531;52.030;4.380;2022-09-03T02:53:22;18.10;99.90
18807;DHT22;9531;52.030;4.380;2022-09-03T02:55:50;18.00;99.90
18807;DHT22;9531;52.030;4.380;2022-09-03T02:58:18;18.00;99.90
18807;DHT22;9531;52.030;4.380;2022-09-03T03:00:48;18.00;99.90
18807;DHT22;9531;52.030;4.380;2022-09-03T03:03:15;17.90;99.90
18807;DHT22;9531;52.030;4.380;2022-09-03T03:05:49;17.90;99.90
18807;DHT22;9531;52.030;4.380;2022-09-03T03:08:28;17.90;99.90
18807;DHT22;9531;52.030;4.380;2022-09-03T03:10:58;17.80;99.90
18807;DHT22;9531;52.030;4.380;2022-09-03T03:13:28;17.80;99.90
18807;DHT22;9531;52.030;4.380;2022-09-03T03:15:56;17.80;99.90
18807;DHT22;9531;52.030;4.380;2022-09-03T03:18:23;17.70;99.90
18807;DHT22;9531;52.030;4.380;2022-09-03T03:20:50;17.70;99.90
18807;DHT22;9531;52.030;4.380;2022-09-03T03:23:20;17.70;99.90
18807;DHT22;9531;52.030;4.380;2022-09-03T03:25:48;17.70;99.90
18807;DHT22;9531;52.030;4.380;2022-09-03T03:28:15;17.70;99.90
18807;DHT22;9531;52.030;4.380;2022-09-03T03:30:45;17.70;99.90
18807;DHT22;9531;52.030;4.380;2022-09-03T03:33:14;17.70;99.90
18807;DHT22;9531;52.030;4.380;2022-09-03T03:35:43;17.60;99.90
18807;DHT22;9531;52.030;4.380;2022-09-03T03:38:11;17.60;99.90
18807;DHT22;9531;52.030;4.380;2022-09-03T03:40:42;17.60;99.90
18807;DHT22;9531;52.030;4.380;2022-09-03T03:43:10;17.50;99.90
18807;DHT22;9531;52.030;4.380;2022-09-03T03:45:37;17.50;99.90
18807;DHT22;9531;52.030;4.380;2022-09-03T03:48:07;17.50;99.90
18807;DHT22;9531;52.030;4.380;2022-09-03T03:50:34;17.50;99.90
18807;DHT22;9531;52.030;4.380;2022-09-03T03:53:02;17.50;99.90
18807;DHT22;9531;52.030;4.380;2022-09-03T03:55:34;17.50;99.90
18807;DHT22;9531;52.030;4.380;2022-09-03T03:58:01;17.50;99.90
18807;DHT22;9531;52.030;4.380;2022-09-03T04:00:30;17.50;99.90
18807;DHT22;9531;52.030;4.380;2022-09-03T04:02:58;17.50;99.90
18807;DHT22;9531;52.030;4.380;2022-09-03T04:05:26;17.50;99.90
18807;DHT22;9531;52.030;4.380;2022-09-03T04:07:52;17.50;99.90
18807;DHT22;9531;52.030;4.380;2022-09-03T04:10:20;17.50;99.90
18807;DHT22;9531;52.030;4.380;2022-09-03T04:12:47;17.50;99.90
18807;DHT22;9531;52.030;4.380;2022-09-03T04:15:14;17.50;99.90
18807;DHT22;9531;52.030;4.380;2022-09-03T04:17:42;17.50;99.90
18807;DHT22;9531;52.030;4.380;2022-09-03T04:20:09;17.50;99.90
18807;DHT22;9531;52.030;4.380;2022-09-03T04:22:36;17.50;99.90
18807;DHT22;9531;52.030;4.380;2022-09-03T04:25:04;17.50;99.90
18807;DHT22;9531;52.030;4.380;2022-09-03T04:27:31;17.50;99.90
18807;DHT22;9531;52.030;4.380;2022-09-03T04:29:58;17.40;99.90
18807;DHT22;9531;52.030;4.380;2022-09-03T04:32:26;17.40;99.90
18807;DHT22;9531;52.030;4.380;2022-09-03T04:35:13;17.40;99.90
18807;DHT22;9531;52.030;4.380;2022-09-03T04:37:40;17.40;99.90
18807;DHT22;9531;52.030;4.380;2022-09-03T04:40:08;17.30;99.90
18807;DHT22;9531;52.030;4.380;2022-09-03T04:42:35;17.30;99.90
18807;DHT22;9531;52.030;4.380;2022-09-03T04:45:02;17.30;99.90
18807;DHT22;9531;52.030;4.380;2022-09-03T04:47:29;17.30;99.90
18807;DHT22;9531;52.030;4.380;2022-09-03T04:49:56;17.20;99.90
18807;DHT22;9531;52.030;4.380;2022-09-03T04:52:25;17.20;99.90
18807;DHT22;9531;52.030;4.380;2022-09-03T04:54:56;17.20;99.90
18807;DHT22;9531;52.030;4.380;2022-09-03T04:57:23;17.10;99.90
18807;DHT22;9531;52.030;4.380;2022-09-03T04:59:51;17.10;99.90
18807;DHT22;9531;52.030;4.380;2022-09-03T05:02:17;17.10;99.90
18807;DHT22;9531;52.030;4.380;2022-09-03T05:04:46;17.10;99.90
18807;DHT22;9531;52.030;4.380;2022-09-03T05:07:13;17.10;99.90
18807;DHT22;9531;52.030;4.380;2022-09-03T05:09:41;17.00;99.90
18807;DHT22;9531;52.030;4.380;2022-09-03T05:12:08;17.00;99.90
18807;DHT22;9531;52.030;4.380;2022-09-03T05:14:35;16.90;99.90
18807;DHT22;9531;52.030;4.380;2022-09-03T05:17:03;16.90;99.90
18807;DHT22;9531;52.030;4.380;2022-09-03T05:19:30;16.90;99.90
18807;DHT22;9531;52.030;4.380;2022-09-03T05:21:57;16.90;99.90
18807;DHT22;9531;52.030;4.380;2022-09-03T05:24:24;16.80;99.90
18807;DHT22;9531;52.030;4.380;2022-09-03T05:26:54;16.90;99.90
18807;DHT22;9531;52.030;4.380;2022-09-03T05:29:21;16.90;99.90
18807;DHT22;9531;52.030;4.380;2022-09-03T05:31:48;16.80;99.90
18807;DHT22;9531;52.030;4.380;2022-09-03T05:34:15;16.80;99.90
18807;DHT22;9531;52.030;4.380;2022-09-03T05:36:43;16.80;99.90
18807;DHT22;9531;52.030;4.380;2022-09-03T05:39:13;16.80;99.90
18807;DHT22;9531;52.030;4.380;2022-09-03T05:41:40;16.80;99.90
18807;DHT22;9531;52.030;4.380;2022-09-03T05:44:09;16.80;99.90
18807;DHT22;9531;52.030;4.380;2022-09-03T05:46:35;16.80;99.90
18807;DHT22;9531;52.030;4.380;2022-09-03T05:49:04;16.90;99.90
18807;DHT22;9531;52.030;4.380;2022-09-03T05:51:33;16.80;99.90
18807;DHT22;9531;52.030;4.380;2022-09-03T05:54:00;16.90;99.90
18807;DHT22;9531;52.030;4.380;2022-09-03T05:56:29;17.00;99.90
18807;DHT22;9531;52.030;4.380;2022-09-03T05:58:58;17.10;99.90
18807;DHT22;9531;52.030;4.380;2022-09-03T06:01:29;17.30;99.90
18807;DHT22;9531;52.030;4.380;2022-09-03T06:03:58;17.50;99.90
18807;DHT22;9531;52.030;4.380;2022-09-03T06:06:26;17.70;99.90
18807;DHT22;9531;52.030;4.380;2022-09-03T06:08:54;17.80;99.90
18807;DHT22;9531;52.030;4.380;2022-09-03T06:11:22;18.00;99.90
18807;DHT22;9531;52.030;4.380;2022-09-03T06:13:52;18.20;99.90
18807;DHT22;9531;52.030;4.380;2022-09-03T06:16:19;18.50;99.90
18807;DHT22;9531;52.030;4.380;2022-09-03T06:18:48;18.80;99.90
18807;DHT22;9531;52.030;4.380;2022-09-03T06:21:16;19.10;99.90
18807;DHT22;9531;52.030;4.380;2022-09-03T06:23:47;19.50;99.90
18807;DHT22;9531;52.030;4.380;2022-09-03T06:26:14;19.80;99.90
18807;DHT22;9531;52.030;4.380;2022-09-03T06:28:42;20.20;99.90
18807;DHT22;9531;52.030;4.380;2022-09-03T06:31:12;20.50;99.90
18807;DHT22;9531;52.030;4.380;2022-09-03T06:33:40;20.90;99.90
18807;DHT22;9531;52.030;4.380;2022-09-03T06:36:10;21.30;99.90
18807;DHT22;9531;52.030;4.380;2022-09-03T06:38:38;21.60;99.90
18807;DHT22;9531;52.030;4.380;2022-09-03T06:41:07;21.90;99.90
18807;DHT22;9531;52.030;4.380;2022-09-03T06:43:37;22.30;99.90
18807;DHT22;9531;52.030;4.380;2022-09-03T06:46:06;22.50;99.90
18807;DHT22;9531;52.030;4.380;2022-09-03T06:48:34;22.80;99.90
18807;DHT22;9531;52.030;4.380;2022-09-03T06:51:04;23.10;99.90
18807;DHT22;9531;52.030;4.380;2022-09-03T06:53:34;23.50;99.90
18807;DHT22;9531;52.030;4.380;2022-09-03T06:56:03;23.80;99.90
18807;DHT22;9531;52.030;4.380;2022-09-03T06:58:32;24.20;99.90
18807;DHT22;9531;52.030;4.380;2022-09-03T07:01:01;24.50;99.90
18807;DHT22;9531;52.030;4.380;2022-09-03T07:03:28;24.80;99.90
18807;DHT22;9531;52.030;4.380;2022-09-03T07:05:59;25.10;99.90
18807;DHT22;9531;52.030;4.380;2022-09-03T07:08:27;25.50;99.90
18807;DHT22;9531;52.030;4.380;2022-09-03T07:10:55;25.70;99.90
18807;DHT22;9531;52.030;4.380;2022-09-03T07:13:22;26.00;99.90
18807;DHT22;9531;52.030;4.380;2022-09-03T07:15:57;26.40;99.90
18807;DHT22;9531;52.030;4.380;2022-09-03T07:18:25;26.70;99.90
18807;DHT22;9531;52.030;4.380;2022-09-03T07:20:57;27.00;99.90
18807;DHT22;9531;52.030;4.380;2022-09-03T07:23:24;27.30;99.90
18807;DHT22;9531;52.030;4.380;2022-09-03T07:25:57;27.50;99.90
18807;DHT22;9531;52.030;4.380;2022-09-03T07:28:25;27.90;99.90
18807;DHT22;9531;52.030;4.380;2022-09-03T07:30:59;28.10;99.90
18807;DHT22;9531;52.030;4.380;2022-09-03T07:33:27;28.30;99.90
18807;DHT22;9531;52.030;4.380;2022-09-03T07:36:00;28.60;99.90
18807;DHT22;9531;52.030;4.380;2022-09-03T07:38:27;28.80;99.90
18807;DHT22;9531;52.030;4.380;2022-09-03T07:40:58;29.10;99.90
18807;DHT22;9531;52.030;4.380;2022-09-03T07:43:26;29.40;99.90
18807;DHT22;9531;52.030;4.380;2022-09-03T07:45:53;29.60;99.90
18807;DHT22;9531;52.030;4.380;2022-09-03T07:48:21;29.90;99.90
18807;DHT22;9531;52.030;4.380;2022-09-03T07:50:48;30.10;99.90
18807;DHT22;9531;52.030;4.380;2022-09-03T07:53:16;30.20;99.90
18807;DHT22;9531;52.030;4.380;2022-09-03T07:55:45;30.50;99.90
18807;DHT22;9531;52.030;4.380;2022-09-03T07:58:13;30.70;99.90
18807;DHT22;9531;52.030;4.380;2022-09-03T08:00:41;30.90;99.90
18807;DHT22;9531;52.030;4.380;2022-09-03T08:03:08;31.10;99.90
18807;DHT22;9531;52.030;4.380;2022-09-03T08:05:36;31.20;99.90
18807;DHT22;9531;52.030;4.380;2022-09-03T08:08:04;31.40;99.90
18807;DHT22;9531;52.030;4.380;2022-09-03T08:10:34;31.60;99.90
18807;DHT22;9531;52.030;4.380;2022-09-03T08:13:01;31.70;99.90
18807;DHT22;9531;52.030;4.380;2022-09-03T08:15:31;31.90;99.90
18807;DHT22;9531;52.030;4.380;2022-09-03T08:17:59;32.20;99.90
18807;DHT22;9531;52.030;4.380;2022-09-03T08:20:26;32.40;99.90
18807;DHT22;9531;52.030;4.380;2022-09-03T08:22:59;32.60;99.90
18807;DHT22;9531;52.030;4.380;2022-09-03T08:25:27;32.80;99.90
18807;DHT22;9531;52.030;4.380;2022-09-03T08:27:57;32.90;99.90
18807;DHT22;9531;52.030;4.380;2022-09-03T08:30:24;33.10;99.90
18807;DHT22;9531;52.030;4.380;2022-09-03T08:32:54;33.30;99.90
18807;DHT22;9531;52.030;4.380;2022-09-03T08:35:21;33.40;99.90
18807;DHT22;9531;52.030;4.380;2022-09-03T08:37:48;33.60;99.90
18807;DHT22;9531;52.030;4.380;2022-09-03T08:40:19;33.70;99.90
18807;DHT22;9531;52.030;4.380;2022-09-03T08:42:57;33.80;99.90
18807;DHT22;9531;52.030;4.380;2022-09-03T08:45:33;34.00;99.90
18807;DHT22;9531;52.030;4.380;2022-09-03T08:48:10;34.10;99.90
18807;DHT22;9531;52.030;4.380;2022-09-03T08:50:42;34.20;99.90
18807;DHT22;9531;52.030;4.380;2022-09-03T08:53:14;34.30;99.90
18807;DHT22;9531;52.030;4.380;2022-09-03T08:55:49;34.40;99.90
18807;DHT22;9531;52.030;4.380;2022-09-03T08:58:18;34.60;99.90
18807;DHT22;9531;52.030;4.380;2022-09-03T09:00:51;34.70;99.90
18807;DHT22;9531;52.030;4.380;2022-09-03T09:03:37;34.80;99.90
18807;DHT22;9531;52.030;4.380;2022-09-03T09:06:16;34.90;99.90
18807;DHT22;9531;52.030;4.380;2022-09-03T09:08:54;35.10;99.90
18807;DHT22;9531;52.030;4.380;2022-09-03T09:11:32;35.30;99.90
18807;DHT22;9531;52.030;4.380;2022-09-03T09:14:04;35.40;99.90
18807;DHT22;9531;52.030;4.380;2022-09-03T09:16:39;35.50;99.90
18807;DHT22;9531;52.030;4.380;2022-09-03T09:19:19;35.70;99.90
18807;DHT22;9531;52.030;4.380;2022-09-03T09:21:53;35.90;97.60
18807;DHT22;9531;52.030;4.380;2022-09-03T09:24:22;36.00;97.40
18807;DHT22;9531;52.030;4.380;2022-09-03T09:26:55;36.10;97.50
18807;DHT22;9531;52.030;4.380;2022-09-03T09:29:25;36.20;94.70
18807;DHT22;9531;52.030;4.380;2022-09-03T09:31:53;36.40;93.80
18807;DHT22;9531;52.030;4.380;2022-09-03T09:34:22;36.40;90.30
18807;DHT22;9531;52.030;4.380;2022-09-03T09:36:51;36.50;95.40
18807;DHT22;9531;52.030;4.380;2022-09-03T09:39:18;36.50;92.70
18807;DHT22;9531;52.030;4.380;2022-09-03T09:41:56;36.60;90.10
18807;DHT22;9531;52.030;4.380;2022-09-03T09:44:24;36.70;88.70
18807;DHT22;9531;52.030;4.380;2022-09-03T09:47:03;36.70;88.30
18807;DHT22;9531;52.030;4.380;2022-09-03T09:49:35;36.70;89.10
18807;DHT22;9531;52.030;4.380;2022-09-03T09:52:06;36.70;88.80
18807;DHT22;9531;52.030;4.380;2022-09-03T09:54:34;36.80;86.60
18807;DHT22;9531;52.030;4.380;2022-09-03T09:57:03;36.90;88.40
18807;DHT22;9531;52.030;4.380;2022-09-03T09:59:31;37.00;87.30
18807;DHT22;9531;52.030;4.380;2022-09-03T10:02:11;37.00;86.50
18807;DHT22;9531;52.030;4.380;2022-09-03T10:04:41;37.10;84.60
18807;DHT22;9531;52.030;4.380;2022-09-03T10:07:22;37.20;85.00
18807;DHT22;9531;52.030;4.380;2022-09-03T10:10:00;37.30;83.80
18807;DHT22;9531;52.030;4.380;2022-09-03T10:12:31;37.40;83.70
18807;DHT22;9531;52.030;4.380;2022-09-03T10:15:14;37.40;84.80
18807;DHT22;9531;52.030;4.380;2022-09-03T10:17:49;37.40;83.90
18807;DHT22;9531;52.030;4.380;2022-09-03T10:20:25;37.50;81.50
18807;DHT22;9531;52.030;4.380;2022-09-03T10:22:59;37.50;82.20
18807;DHT22;9531;52.030;4.380;2022-09-03T10:25:34;37.50;82.80
18807;DHT22;9531;52.030;4.380;2022-09-03T10:28:05;37.50;80.50
18807;DHT22;9531;52.030;4.380;2022-09-03T10:30:44;37.70;81.60
18807;DHT22;9531;52.030;4.380;2022-09-03T10:33:18;37.70;79.80
18807;DHT22;9531;52.030;4.380;2022-09-03T10:35:52;37.80;80.60
18807;DHT22;9531;52.030;4.380;2022-09-03T10:38:27;37.80;83.30
18807;DHT22;9531;52.030;4.380;2022-09-03T10:41:03;38.00;84.40
18807;DHT22;9531;52.030;4.380;2022-09-03T10:44:01;38.00;84.60
18807;DHT22;9531;52.030;4.380;2022-09-03T10:46:40;38.20;82.70
18807;DHT22;9531;52.030;4.380;2022-09-03T10:49:34;38.30;80.10
18807;DHT22;9531;52.030;4.380;2022-09-03T10:52:09;38.50;80.20
18807;DHT22;9531;52.030;4.380;2022-09-03T10:54:54;38.50;79.70
18807;DHT22;9531;52.030;4.380;2022-09-03T10:57:34;38.60;78.30
18807;DHT22;9531;52.030;4.380;2022-09-03T11:00:07;38.60;75.60
18807;DHT22;9531;52.030;4.380;2022-09-03T11:05:29;38.80;76.80
18807;DHT22;9531;52.030;4.380;2022-09-03T11:08:08;38.80;75.90
18807;DHT22;9531;52.030;4.380;2022-09-03T11:10:41;38.90;75.70
18807;DHT22;9531;52.030;4.380;2022-09-03T11:13:13;39.00;78.10
18807;DHT22;9531;52.030;4.380;2022-09-03T11:15:45;39.00;77.50
18807;DHT22;9531;52.030;4.380;2022-09-03T11:18:17;39.10;83.20
18807;DHT22;9531;52.030;4.380;2022-09-03T11:20:48;39.10;78.60
18807;DHT22;9531;52.030;4.380;2022-09-03T11:23:19;39.20;78.00
18807;DHT22;9531;52.030;4.380;2022-09-03T11:25:50;39.10;77.50
18807;DHT22;9531;52.030;4.380;2022-09-03T11:28:27;39.20;76.30
18807;DHT22;9531;52.030;4.380;2022-09-03T11:31:09;39.20;77.40
18807;DHT22;9531;52.030;4.380;2022-09-03T11:33:40;39.30;74.70
18807;DHT22;9531;52.030;4.380;2022-09-03T11:36:08;39.30;73.40
18807;DHT22;9531;52.030;4.380;2022-09-03T11:38:36;39.40;69.50
18807;DHT22;9531;52.030;4.380;2022-09-03T11:41:11;39.40;71.00
18807;DHT22;9531;52.030;4.380;2022-09-03T11:43:41;39.40;74.20
18807;DHT22;9531;52.030;4.380;2022-09-03T11:46:10;39.40;71.20
18807;DHT22;9531;52.030;4.380;2022-09-03T11:48:41;39.40;74.30
18807;DHT22;9531;52.030;4.380;2022-09-03T11:51:30;39.40;74.40
18807;DHT22;9531;52.030;4.380;2022-09-03T11:54:01;39.50;74.60
18807;DHT22;9531;52.030;4.380;2022-09-03T11:56:30;39.50;71.80
18807;DHT22;9531;52.030;4.380;2022-09-03T11:59:05;39.40;70.30
18807;DHT22;9531;52.030;4.380;2022-09-03T12:01:34;39.30;67.80
18807;DHT22;9531;52.030;4.380;2022-09-03T12:04:04;39.20;71.10
18807;DHT22;9531;52.030;4.380;2022-09-03T12:07:02;39.10;71.40
18807;DHT22;9531;52.030;4.380;2022-09-03T12:12:37;39.00;77.50
18807;DHT22;9531;52.030;4.380;2022-09-03T12:15:10;39.00;79.10
18807;DHT22;9531;52.030;4.380;2022-09-03T12:17:46;39.00;78.10
18807;DHT22;9531;52.030;4.380;2022-09-03T12:20:36;39.10;78.80
18807;DHT22;9531;52.030;4.380;2022-09-03T12:23:06;39.30;75.80
18807;DHT22;9531;52.030;4.380;2022-09-03T12:25:42;39.40;77.50
18807;DHT22;9531;52.030;4.380;2022-09-03T12:28:15;39.30;75.40
18807;DHT22;9531;52.030;4.380;2022-09-03T12:30:44;39.40;75.60
18807;DHT22;9531;52.030;4.380;2022-09-03T12:33:12;39.30;78.30
18807;DHT22;9531;52.030;4.380;2022-09-03T12:35:43;39.30;77.60
18807;DHT22;9531;52.030;4.380;2022-09-03T12:38:12;39.30;77.40
18807;DHT22;9531;52.030;4.380;2022-09-03T12:40:42;39.20;77.60
18807;DHT22;9531;52.030;4.380;2022-09-03T12:43:13;39.20;78.70
18807;DHT22;9531;52.030;4.380;2022-09-03T12:45:45;39.20;82.30
18807;DHT22;9531;52.030;4.380;2022-09-03T12:48:13;39.30;75.70
18807;DHT22;9531;52.030;4.380;2022-09-03T12:50:41;39.30;78.30
18807;DHT22;9531;52.030;4.380;2022-09-03T12:53:10;39.40;81.80
18807;DHT22;9531;52.030;4.380;2022-09-03T12:55:44;39.40;82.10
18807;DHT22;9531;52.030;4.380;2022-09-03T12:58:16;39.50;83.80
18807;DHT22;9531;52.030;4.380;2022-09-03T13:00:47;39.60;82.10
18807;DHT22;9531;52.030;4.380;2022-09-03T13:03:19;39.60;81.10
18807;DHT22;9531;52.030;4.380;2022-09-03T13:05:51;39.70;82.00
18807;DHT22;9531;52.030;4.380;2022-09-03T13:08:21;39.80;78.70
18807;DHT22;9531;52.030;4.380;2022-09-03T13:10:54;39.80;79.10
18807;DHT22;9531;52.030;4.380;2022-09-03T13:13:23;39.80;80.00
18807;DHT22;9531;52.030;4.380;2022-09-03T13:15:59;39.80;81.80
18807;DHT22;9531;52.030;4.380;2022-09-03T13:18:31;39.80;84.30
18807;DHT22;9531;52.030;4.380;2022-09-03T13:21:12;39.70;82.60
18807;DHT22;9531;52.030;4.380;2022-09-03T13:24:05;39.70;80.50
18807;DHT22;9531;52.030;4.380;2022-09-03T13:26:43;39.60;81.30
18807;DHT22;9531;52.030;4.380;2022-09-03T13:29:26;39.70;81.80
18807;DHT22;9531;52.030;4.380;2022-09-03T13:32:02;39.60;82.50
18807;DHT22;9531;52.030;4.380;2022-09-03T13:34:36;39.60;84.20
18807;DHT22;9531;52.030;4.380;2022-09-03T13:37:14;39.60;84.10
18807;DHT22;9531;52.030;4.380;2022-09-03T13:39:47;39.50;84.30
18807;DHT22;9531;52.030;4.380;2022-09-03T13:42:24;39.60;85.90
18807;DHT22;9531;52.030;4.380;2022-09-03T13:44:57;39.50;85.90
18807;DHT22;9531;52.030;4.380;2022-09-03T13:47:31;39.40;89.40
18807;DHT22;9531;52.030;4.380;2022-09-03T13:50:03;39.40;87.90
18807;DHT22;9531;52.030;4.380;2022-09-03T13:52:56;39.40;80.90
18807;DHT22;9531;52.030;4.380;2022-09-03T13:55:30;39.40;89.50
18807;DHT22;9531;52.030;4.380;2022-09-03T13:58:03;39.30;85.30
18807;DHT22;9531;52.030;4.380;2022-09-03T14:00:38;39.20;87.50
18807;DHT22;9531;52.030;4.380;2022-09-03T14:03:09;39.10;90.00
18807;DHT22;9531;52.030;4.380;2022-09-03T14:05:53;39.10;90.20
18807;DHT22;9531;52.030;4.380;2022-09-03T14:08:26;39.00;86.40
18807;DHT22;9531;52.030;4.380;2022-09-03T14:11:02;39.00;92.90
18807;DHT22;9531;52.030;4.380;2022-09-03T14:13:49;39.00;89.70
18807;DHT22;9531;52.030;4.380;2022-09-03T14:16:28;39.00;94.00
18807;DHT22;9531;52.030;4.380;2022-09-03T14:18:58;38.90;94.30
18807;DHT22;9531;52.030;4.380;2022-09-03T14:21:29;38.90;90.30
18807;DHT22;9531;52.030;4.380;2022-09-03T14:24:03;38.90;92.10
18807;DHT22;9531;52.030;4.380;2022-09-03T14:26:34;38.80;91.70
18807;DHT22;9531;52.030;4.380;2022-09-03T14:29:07;38.70;89.50
18807;DHT22;9531;52.030;4.380;2022-09-03T14:32:04;38.70;91.90
18807;DHT22;9531;52.030;4.380;2022-09-03T14:34:43;38.70;94.60
18807;DHT22;9531;52.030;4.380;2022-09-03T14:37:29;38.70;92.30
18807;DHT22;9531;52.030;4.380;2022-09-03T14:40:04;38.70;89.70
18807;DHT22;9531;52.030;4.380;2022-09-03T14:45:50;38.60;92.50
18807;DHT22;9531;52.030;4.380;2022-09-03T14:48:37;38.50;89.50
18807;DHT22;9531;52.030;4.380;2022-09-03T14:51:22;38.40;85.30
18807;DHT22;9531;52.030;4.380;2022-09-03T14:54:18;38.30;90.50
18807;DHT22;9531;52.030;4.380;2022-09-03T14:57:02;38.20;90.10
18807;DHT22;9531;52.030;4.380;2022-09-03T14:59:48;38.20;93.20
18807;DHT22;9531;52.030;4.380;2022-09-03T15:05:17;38.00;95.30
18807;DHT22;9531;52.030;4.380;2022-09-03T15:07:50;37.90;94.40
18807;DHT22;9531;52.030;4.380;2022-09-03T15:10:26;37.80;94.80
18807;DHT22;9531;52.030;4.380;2022-09-03T15:12:59;37.80;93.80
18807;DHT22;9531;52.030;4.380;2022-09-03T15:15:43;37.70;95.10
18807;DHT22;9531;52.030;4.380;2022-09-03T15:18:19;37.60;96.10
18807;DHT22;9531;52.030;4.380;2022-09-03T15:20:52;37.40;96.50
18807;DHT22;9531;52.030;4.380;2022-09-03T15:23:24;37.30;97.60
18807;DHT22;9531;52.030;4.380;2022-09-03T15:26:27;37.20;96.10
18807;DHT22;9531;52.030;4.380;2022-09-03T15:29:15;37.00;96.80
18807;DHT22;9531;52.030;4.380;2022-09-03T15:31:49;37.00;97.20
18807;DHT22;9531;52.030;4.380;2022-09-03T15:34:34;36.80;96.20
18807;DHT22;9531;52.030;4.380;2022-09-03T15:37:10;36.60;93.90
18807;DHT22;9531;52.030;4.380;2022-09-03T15:39:41;36.30;87.60
18807;DHT22;9531;52.030;4.380;2022-09-03T15:42:15;36.00;93.40
18807;DHT22;9531;52.030;4.380;2022-09-03T15:44:46;35.80;95.20
18807;DHT22;9531;52.030;4.380;2022-09-03T15:47:32;35.70;99.10
18807;DHT22;9531;52.030;4.380;2022-09-03T15:50:07;35.40;99.90
18807;DHT22;9531;52.030;4.380;2022-09-03T15:52:46;35.20;99.90
18807;DHT22;9531;52.030;4.380;2022-09-03T15:55:24;35.00;99.90
18807;DHT22;9531;52.030;4.380;2022-09-03T15:57:55;34.80;99.90
18807;DHT22;9531;52.030;4.380;2022-09-03T16:00:30;34.50;99.90
18807;DHT22;9531;52.030;4.380;2022-09-03T16:03:07;34.30;99.90
18807;DHT22;9531;52.030;4.380;2022-09-03T16:05:39;34.10;99.90
18807;DHT22;9531;52.030;4.380;2022-09-03T16:08:16;33.90;99.90
18807;DHT22;9531;52.030;4.380;2022-09-03T16:10:53;33.70;99.90
18807;DHT22;9531;52.030;4.380;2022-09-03T16:13:42;33.50;99.90
18807;DHT22;9531;52.030;4.380;2022-09-03T16:16:14;33.30;99.90
18807;DHT22;9531;52.030;4.380;2022-09-03T16:18:46;33.10;99.90
18807;DHT22;9531;52.030;4.380;2022-09-03T16:21:25;32.90;99.90
18807;DHT22;9531;52.030;4.380;2022-09-03T16:23:56;32.70;99.90
18807;DHT22;9531;52.030;4.380;2022-09-03T16:26:28;32.50;99.90
18807;DHT22;9531;52.030;4.380;2022-09-03T16:29:00;32.30;99.90
18807;DHT22;9531;52.030;4.380;2022-09-03T16:31:50;32.20;99.90
18807;DHT22;9531;52.030;4.380;2022-09-03T16:34:28;32.00;99.90
18807;DHT22;9531;52.030;4.380;2022-09-03T16:37:07;31.90;99.90
18807;DHT22;9531;52.030;4.380;2022-09-03T16:39:47;31.70;99.90
18807;DHT22;9531;52.030;4.380;2022-09-03T16:42:25;31.60;99.90
18807;DHT22;9531;52.030;4.380;2022-09-03T16:45:02;31.40;99.90
18807;DHT22;9531;52.030;4.380;2022-09-03T16:47:44;31.30;99.90
18807;DHT22;9531;52.030;4.380;2022-09-03T16:50:27;31.20;99.90
18807;DHT22;9531;52.030;4.380;2022-09-03T16:53:06;31.00;99.90